sensor_id;sensor_type;location;lat;lon;timestamp;P1;durP1;ratioP1;P2;durP2;ratioP2
51925;SDS011;37952;51.938;15.480;2022-12-07T00:00:25;0.80;;;0.80;;
51925;SDS011;37952;51.938;15.480;2022-12-07T00:03:44;0.90;;;0.90;;
51925;SDS011;37952;51.938;15.480;2022-12-07T00:06:52;0.90;;;0.90;;
51925;SDS011;37952;51.938;15.480;2022-12-07T00:09:55;1.10;;;1.00;;
51925;SDS011;37952;51.938;15.480;2022-12-07T00:12:58;0.90;;;0.90;;
51925;SDS011;37952;51.938;15.480;2022-12-07T00:16:05;1.00;;;0.90;;
51925;SDS011;37952;51.938;15.480;2022-12-07T00:19:09;1.40;;;1.10;;
51925;SDS011;37952;51.938;15.480;2022-12-07T00:22:13;0.90;;;0.90;;
51925;SDS011;37952;51.938;15.480;2022-12-07T00:25:16;1.10;;;1.10;;
51925;SDS011;37952;51.938;15.480;2022-12-07T00:28:19;1.20;;;1.20;;
51925;SDS011;37952;51.938;15.480;2022-12-07T00:31:23;1.00;;;1.00;;
51925;SDS011;37952;51.938;15.480;2022-12-07T00:34:29;1.10;;;1.10;;
51925;SDS011;37952;51.938;15.480;2022-12-07T00:37:32;0.80;;;0.80;;
51925;SDS011;37952;51.938;15.480;2022-12-07T00:40:34;0.90;;;0.90;;
51925;SDS011;37952;51.938;15.480;2022-12-07T00:43:37;1.10;;;1.10;;
51925;SDS011;37952;51.938;15.480;2022-12-07T00:46:41;0.80;;;0.80;;
51925;SDS011;37952;51.938;15.480;2022-12-07T00:49:50;0.80;;;0.80;;
51925;SDS011;37952;51.938;15.480;2022-12-07T00:55:56;0.80;;;0.80;;
51925;SDS011;37952;51.938;15.480;2022-12-07T00:58:59;0.90;;;0.90;;
51925;SDS011;37952;51.938;15.480;2022-12-07T01:02:04;0.90;;;0.90;;
51925;SDS011;37952;51.938;15.480;2022-12-07T01:05:08;0.80;;;0.80;;
51925;SDS011;37952;51.938;15.480;2022-12-07T01:08:11;1.10;;;1.10;;
51925;SDS011;37952;51.938;15.480;2022-12-07T01:16:04;1.20;;;1.20;;
51925;SDS011;37952;51.938;15.480;2022-12-07T01:19:08;1.60;;;1.50;;
51925;SDS011;37952;51.938;15.480;2022-12-07T01:22:11;1.40;;;1.30;;
51925;SDS011;37952;51.938;15.480;2022-12-07T01:25:14;2.00;;;1.90;;
51925;SDS011;37952;51.938;15.480;2022-12-07T01:28:17;1.90;;;1.80;;
51925;SDS011;37952;51.938;15.480;2022-12-07T01:31:21;1.90;;;1.80;;
51925;SDS011;37952;51.938;15.480;2022-12-07T01:34:26;2.40;;;2.30;;
51925;SDS011;37952;51.938;15.480;2022-12-07T01:37:33;1.90;;;1.80;;
51925;SDS011;37952;51.938;15.480;2022-12-07T01:40:40;2.80;;;2.70;;
51925;SDS011;37952;51.938;15.480;2022-12-07T01:47:20;1.90;;;1.80;;
51925;SDS011;37952;51.938;15.480;2022-12-07T01:50:24;1.90;;;1.80;;
51925;SDS011;37952;51.938;15.480;2022-12-07T01:53:29;1.90;;;1.80;;
51925;SDS011;37952;51.938;15.480;2022-12-07T01:56:34;1.90;;;1.80;;
51925;SDS011;37952;51.938;15.480;2022-12-07T01:59:52;1.30;;;1.30;;
51925;SDS011;37952;51.938;15.480;2022-12-07T02:06:05;1.50;;;1.40;;
51925;SDS011;37952;51.938;15.480;2022-12-07T02:14:01;1.30;;;1.30;;
51925;SDS011;37952;51.938;15.480;2022-12-07T02:17:08;1.40;;;1.30;;
51925;SDS011;37952;51.938;15.480;2022-12-07T02:20:21;1.10;;;1.10;;
51925;SDS011;37952;51.938;15.480;2022-12-07T02:30:02;1.80;;;1.70;;
51925;SDS011;37952;51.938;15.480;2022-12-07T02:33:27;1.60;;;1.50;;
51925;SDS011;37952;51.938;15.480;2022-12-07T02:36:46;1.60;;;1.50;;
51925;SDS011;37952;51.938;15.480;2022-12-07T02:40:09;2.20;;;2.10;;
51925;SDS011;37952;51.938;15.480;2022-12-07T02:43:24;1.60;;;1.60;;
51925;SDS011;37952;51.938;15.480;2022-12-07T02:46:31;1.90;;;1.80;;
51925;SDS011;37952;51.938;15.480;2022-12-07T02:49:38;2.10;;;2.00;;
51925;SDS011;37952;51.938;15.480;2022-12-07T02:52:42;2.10;;;2.00;;
51925;SDS011;37952;51.938;15.480;2022-12-07T02:55:45;2.30;;;2.20;;
51925;SDS011;37952;51.938;15.480;2022-12-07T03:08:58;2.50;;;2.40;;
51925;SDS011;37952;51.938;15.480;2022-12-07T03:12:16;2.70;;;2.60;;
51925;SDS011;37952;51.938;15.480;2022-12-07T03:15:36;2.60;;;2.50;;
51925;SDS011;37952;51.938;15.480;2022-12-07T03:22:24;2.80;;;2.70;;
51925;SDS011;37952;51.938;15.480;2022-12-07T03:25:31;3.40;;;3.20;;
51925;SDS011;37952;51.938;15.480;2022-12-07T03:28:39;3.50;;;3.30;;
51925;SDS011;37952;51.938;15.480;2022-12-07T03:35:26;3.00;;;2.80;;
51925;SDS011;37952;51.938;15.480;2022-12-07T03:38:33;3.00;;;2.80;;
51925;SDS011;37952;51.938;15.480;2022-12-07T03:41:48;3.30;;;3.10;;
51925;SDS011;37952;51.938;15.480;2022-12-07T03:44:52;3.00;;;2.90;;
51925;SDS011;37952;51.938;15.480;2022-12-07T03:54:19;2.80;;;2.70;;
51925;SDS011;37952;51.938;15.480;2022-12-07T04:02:24;2.80;;;2.70;;
51925;SDS011;37952;51.938;15.480;2022-12-07T04:05:30;2.70;;;2.60;;
51925;SDS011;37952;51.938;15.480;2022-12-07T04:08:32;3.80;;;3.50;;
51925;SDS011;37952;51.938;15.480;2022-12-07T04:11:35;3.60;;;3.40;;
51925;SDS011;37952;51.938;15.480;2022-12-07T04:14:38;3.60;;;3.40;;
51925;SDS011;37952;51.938;15.480;2022-12-07T04:21:26;4.60;;;4.30;;
51925;SDS011;37952;51.938;15.480;2022-12-07T04:24:29;5.40;;;5.00;;
51925;SDS011;37952;51.938;15.480;2022-12-07T04:27:32;4.50;;;4.20;;
51925;SDS011;37952;51.938;15.480;2022-12-07T04:30:35;4.40;;;4.10;;
51925;SDS011;37952;51.938;15.480;2022-12-07T04:33:38;4.50;;;4.20;;
51925;SDS011;37952;51.938;15.480;2022-12-07T04:40:04;3.60;;;3.30;;
51925;SDS011;37952;51.938;15.480;2022-12-07T04:43:11;4.40;;;4.10;;
51925;SDS011;37952;51.938;15.480;2022-12-07T04:46:14;3.70;;;3.50;;
51925;SDS011;37952;51.938;15.480;2022-12-07T04:49:17;3.90;;;3.60;;
51925;SDS011;37952;51.938;15.480;2022-12-07T04:59:54;2.80;;;2.70;;
51925;SDS011;37952;51.938;15.480;2022-12-07T05:02:57;2.90;;;2.70;;
51925;SDS011;37952;51.938;15.480;2022-12-07T05:06:03;2.80;;;2.70;;
51925;SDS011;37952;51.938;15.480;2022-12-07T05:09:14;2.70;;;2.60;;
51925;SDS011;37952;51.938;15.480;2022-12-07T05:12:17;2.30;;;2.20;;
51925;SDS011;37952;51.938;15.480;2022-12-07T05:15:20;2.90;;;2.70;;
51925;SDS011;37952;51.938;15.480;2022-12-07T05:18:23;2.60;;;2.50;;
51925;SDS011;37952;51.938;15.480;2022-12-07T05:26:15;3.70;;;2.70;;
51925;SDS011;37952;51.938;15.480;2022-12-07T05:29:19;2.20;;;2.10;;
51925;SDS011;37952;51.938;15.480;2022-12-07T05:32:21;2.20;;;2.10;;
51925;SDS011;37952;51.938;15.480;2022-12-07T05:35:25;2.60;;;2.50;;
51925;SDS011;37952;51.938;15.480;2022-12-07T05:38:31;2.40;;;2.30;;
51925;SDS011;37952;51.938;15.480;2022-12-07T05:45:23;3.10;;;2.70;;
51925;SDS011;37952;51.938;15.480;2022-12-07T05:48:26;2.60;;;2.50;;
51925;SDS011;37952;51.938;15.480;2022-12-07T05:55:39;3.00;;;2.80;;
51925;SDS011;37952;51.938;15.480;2022-12-07T05:58:42;3.00;;;2.80;;
51925;SDS011;37952;51.938;15.480;2022-12-07T06:02:05;3.40;;;3.20;;
51925;SDS011;37952;51.938;15.480;2022-12-07T06:05:14;3.40;;;3.20;;
51925;SDS011;37952;51.938;15.480;2022-12-07T06:13:11;2.40;;;2.30;;
51925;SDS011;37952;51.938;15.480;2022-12-07T06:16:14;3.10;;;2.90;;
51925;SDS011;37952;51.938;15.480;2022-12-07T06:19:18;5.00;;;3.40;;
51925;SDS011;37952;51.938;15.480;2022-12-07T06:22:21;3.80;;;3.50;;
51925;SDS011;37952;51.938;15.480;2022-12-07T06:25:25;3.50;;;3.30;;
51925;SDS011;37952;51.938;15.480;2022-12-07T06:28:28;3.90;;;3.70;;
51925;SDS011;37952;51.938;15.480;2022-12-07T06:31:30;4.60;;;4.30;;
51925;SDS011;37952;51.938;15.480;2022-12-07T06:34:34;4.30;;;4.10;;
51925;SDS011;37952;51.938;15.480;2022-12-07T06:37:37;4.70;;;4.40;;
51925;SDS011;37952;51.938;15.480;2022-12-07T06:40:39;5.10;;;4.70;;
51925;SDS011;37952;51.938;15.480;2022-12-07T06:43:42;5.40;;;4.90;;
51925;SDS011;37952;51.938;15.480;2022-12-07T06:46:45;5.50;;;5.10;;
51925;SDS011;37952;51.938;15.480;2022-12-07T06:49:48;4.60;;;4.30;;
51925;SDS011;37952;51.938;15.480;2022-12-07T06:57:39;5.30;;;4.80;;
51925;SDS011;37952;51.938;15.480;2022-12-07T07:00:42;6.50;;;5.90;;
51925;SDS011;37952;51.938;15.480;2022-12-07T07:03:46;6.40;;;6.00;;
51925;SDS011;37952;51.938;15.480;2022-12-07T07:11:03;5.90;;;5.40;;
51925;SDS011;37952;51.938;15.480;2022-12-07T07:18:32;6.40;;;6.00;;
51925;SDS011;37952;51.938;15.480;2022-12-07T07:21:36;6.20;;;5.60;;
51925;SDS011;37952;51.938;15.480;2022-12-07T07:24:39;6.10;;;5.70;;
51925;SDS011;37952;51.938;15.480;2022-12-07T07:27:42;5.80;;;5.30;;
51925;SDS011;37952;51.938;15.480;2022-12-07T07:30:45;6.20;;;5.70;;
51925;SDS011;37952;51.938;15.480;2022-12-07T07:33:48;7.00;;;6.40;;
51925;SDS011;37952;51.938;15.480;2022-12-07T07:36:51;6.90;;;6.40;;
51925;SDS011;37952;51.938;15.480;2022-12-07T07:39:53;8.10;;;6.40;;
51925;SDS011;37952;51.938;15.480;2022-12-07T07:42:56;7.40;;;6.80;;
51925;SDS011;37952;51.938;15.480;2022-12-07T07:46:00;8.50;;;7.70;;
51925;SDS011;37952;51.938;15.480;2022-12-07T07:49:03;8.40;;;7.30;;
51925;SDS011;37952;51.938;15.480;2022-12-07T07:52:06;8.60;;;7.80;;
51925;SDS011;37952;51.938;15.480;2022-12-07T07:55:09;7.50;;;6.90;;
51925;SDS011;37952;51.938;15.480;2022-12-07T07:58:12;8.10;;;7.40;;
51925;SDS011;37952;51.938;15.480;2022-12-07T08:01:15;8.20;;;7.50;;
51925;SDS011;37952;51.938;15.480;2022-12-07T08:04:19;8.90;;;8.10;;
51925;SDS011;37952;51.938;15.480;2022-12-07T08:07:22;9.70;;;7.10;;
51925;SDS011;37952;51.938;15.480;2022-12-07T08:10:24;7.50;;;6.90;;
51925;SDS011;37952;51.938;15.480;2022-12-07T08:13:27;7.50;;;6.90;;
51925;SDS011;37952;51.938;15.480;2022-12-07T08:16:33;8.30;;;7.60;;
51925;SDS011;37952;51.938;15.480;2022-12-07T08:19:40;7.40;;;6.80;;
51925;SDS011;37952;51.938;15.480;2022-12-07T08:22:43;8.70;;;8.00;;
51925;SDS011;37952;51.938;15.480;2022-12-07T08:25:46;8.10;;;7.40;;
51925;SDS011;37952;51.938;15.480;2022-12-07T08:28:49;8.30;;;7.70;;
51925;SDS011;37952;51.938;15.480;2022-12-07T08:31:54;7.80;;;7.10;;
51925;SDS011;37952;51.938;15.480;2022-12-07T08:38:54;8.20;;;7.50;;
51925;SDS011;37952;51.938;15.480;2022-12-07T08:42:21;8.10;;;7.40;;
51925;SDS011;37952;51.938;15.480;2022-12-07T08:45:25;8.10;;;7.40;;
51925;SDS011;37952;51.938;15.480;2022-12-07T08:48:33;7.70;;;7.10;;
51925;SDS011;37952;51.938;15.480;2022-12-07T08:51:43;9.00;;;8.20;;
51925;SDS011;37952;51.938;15.480;2022-12-07T08:54:47;9.70;;;8.40;;
51925;SDS011;37952;51.938;15.480;2022-12-07T08:57:50;8.30;;;7.50;;
51925;SDS011;37952;51.938;15.480;2022-12-07T09:00:54;8.20;;;7.50;;
51925;SDS011;37952;51.938;15.480;2022-12-07T09:03:56;7.80;;;7.00;;
51925;SDS011;37952;51.938;15.480;2022-12-07T09:06:59;9.00;;;8.00;;
51925;SDS011;37952;51.938;15.480;2022-12-07T09:10:03;8.40;;;7.70;;
51925;SDS011;37952;51.938;15.480;2022-12-07T09:13:07;8.80;;;8.00;;
51925;SDS011;37952;51.938;15.480;2022-12-07T09:16:10;9.30;;;8.10;;
51925;SDS011;37952;51.938;15.480;2022-12-07T09:19:13;7.40;;;6.80;;
51925;SDS011;37952;51.938;15.480;2022-12-07T09:22:16;7.10;;;6.60;;
51925;SDS011;37952;51.938;15.480;2022-12-07T09:25:32;6.80;;;6.40;;
51925;SDS011;37952;51.938;15.480;2022-12-07T09:28:36;7.20;;;6.70;;
51925;SDS011;37952;51.938;15.480;2022-12-07T09:31:39;9.50;;;7.50;;
51925;SDS011;37952;51.938;15.480;2022-12-07T09:34:41;7.00;;;6.50;;
51925;SDS011;37952;51.938;15.480;2022-12-07T09:37:44;7.30;;;6.80;;
51925;SDS011;37952;51.938;15.480;2022-12-07T09:40:47;8.00;;;7.40;;
51925;SDS011;37952;51.938;15.480;2022-12-07T09:43:51;8.00;;;7.40;;
51925;SDS011;37952;51.938;15.480;2022-12-07T09:46:55;7.10;;;6.60;;
51925;SDS011;37952;51.938;15.480;2022-12-07T09:50:03;7.50;;;6.80;;
51925;SDS011;37952;51.938;15.480;2022-12-07T09:53:13;8.30;;;7.60;;
51925;SDS011;37952;51.938;15.480;2022-12-07T10:01:30;8.50;;;7.70;;
51925;SDS011;37952;51.938;15.480;2022-12-07T10:04:35;8.10;;;7.50;;
51925;SDS011;37952;51.938;15.480;2022-12-07T10:07:40;8.60;;;7.90;;
51925;SDS011;37952;51.938;15.480;2022-12-07T10:10:44;11.50;;;10.20;;
51925;SDS011;37952;51.938;15.480;2022-12-07T10:13:52;9.40;;;8.50;;
51925;SDS011;37952;51.938;15.480;2022-12-07T10:16:56;9.30;;;8.20;;
51925;SDS011;37952;51.938;15.480;2022-12-07T10:20:08;7.90;;;7.40;;
51925;SDS011;37952;51.938;15.480;2022-12-07T10:23:17;7.30;;;6.80;;
51925;SDS011;37952;51.938;15.480;2022-12-07T10:32:38;8.30;;;7.50;;
51925;SDS011;37952;51.938;15.480;2022-12-07T10:35:44;10.60;;;7.10;;
51925;SDS011;37952;51.938;15.480;2022-12-07T10:38:48;11.50;;;8.40;;
51925;SDS011;37952;51.938;15.480;2022-12-07T10:41:56;7.70;;;7.10;;
51925;SDS011;37952;51.938;15.480;2022-12-07T10:59:39;7.20;;;6.60;;
51925;SDS011;37952;51.938;15.480;2022-12-07T11:02:56;6.50;;;6.00;;
51925;SDS011;37952;51.938;15.480;2022-12-07T11:06:27;7.00;;;6.50;;
51925;SDS011;37952;51.938;15.480;2022-12-07T11:10:21;7.10;;;6.40;;
51925;SDS011;37952;51.938;15.480;2022-12-07T11:16:34;6.20;;;5.70;;
51925;SDS011;37952;51.938;15.480;2022-12-07T11:23:14;6.10;;;5.50;;
51925;SDS011;37952;51.938;15.480;2022-12-07T11:30:02;5.80;;;5.40;;
51925;SDS011;37952;51.938;15.480;2022-12-07T11:38:00;4.80;;;4.50;;
51925;SDS011;37952;51.938;15.480;2022-12-07T11:41:11;5.50;;;5.10;;
51925;SDS011;37952;51.938;15.480;2022-12-07T11:47:58;5.10;;;4.70;;
51925;SDS011;37952;51.938;15.480;2022-12-07T11:54:51;4.70;;;4.40;;
51925;SDS011;37952;51.938;15.480;2022-12-07T12:16:59;2.20;;;2.00;;
51925;SDS011;37952;51.938;15.480;2022-12-07T12:23:28;2.70;;;2.30;;
51925;SDS011;37952;51.938;15.480;2022-12-07T12:32:04;3.30;;;3.10;;
51925;SDS011;37952;51.938;15.480;2022-12-07T12:38:31;2.70;;;2.50;;
51925;SDS011;37952;51.938;15.480;2022-12-07T12:49:35;1.90;;;1.80;;
51925;SDS011;37952;51.938;15.480;2022-12-07T12:56:31;1.60;;;1.50;;
51925;SDS011;37952;51.938;15.480;2022-12-07T13:02:55;2.80;;;1.50;;
51925;SDS011;37952;51.938;15.480;2022-12-07T13:06:18;2.90;;;1.50;;
51925;SDS011;37952;51.938;15.480;2022-12-07T13:09:32;4.10;;;3.90;;
51925;SDS011;37952;51.938;15.480;2022-12-07T13:12:36;3.40;;;3.10;;
51925;SDS011;37952;51.938;15.480;2022-12-07T13:26:47;0.90;;;0.90;;
51925;SDS011;37952;51.938;15.480;2022-12-07T13:29:50;1.10;;;1.10;;
51925;SDS011;37952;51.938;15.480;2022-12-07T13:32:54;2.10;;;1.00;;
51925;SDS011;37952;51.938;15.480;2022-12-07T13:35:58;0.90;;;0.80;;
51925;SDS011;37952;51.938;15.480;2022-12-07T13:39:19;1.00;;;0.90;;
51925;SDS011;37952;51.938;15.480;2022-12-07T13:42:43;1.10;;;0.80;;
51925;SDS011;37952;51.938;15.480;2022-12-07T13:45:46;1.10;;;1.00;;
51925;SDS011;37952;51.938;15.480;2022-12-07T13:48:59;1.90;;;0.90;;
51925;SDS011;37952;51.938;15.480;2022-12-07T13:55:22;0.90;;;0.90;;
51925;SDS011;37952;51.938;15.480;2022-12-07T13:58:30;1.40;;;1.30;;
51925;SDS011;37952;51.938;15.480;2022-12-07T14:01:35;1.30;;;1.10;;
51925;SDS011;37952;51.938;15.480;2022-12-07T14:04:40;0.90;;;0.90;;
51925;SDS011;37952;51.938;15.480;2022-12-07T14:07:55;1.30;;;1.00;;
51925;SDS011;37952;51.938;15.480;2022-12-07T14:10:59;1.10;;;1.00;;
51925;SDS011;37952;51.938;15.480;2022-12-07T14:14:12;1.20;;;1.20;;
51925;SDS011;37952;51.938;15.480;2022-12-07T14:17:19;0.70;;;0.70;;
51925;SDS011;37952;51.938;15.480;2022-12-07T14:20:29;0.70;;;0.70;;
51925;SDS011;37952;51.938;15.480;2022-12-07T14:23:39;1.50;;;1.00;;
51925;SDS011;37952;51.938;15.480;2022-12-07T14:26:43;1.10;;;1.00;;
51925;SDS011;37952;51.938;15.480;2022-12-07T14:29:48;0.80;;;0.80;;
51925;SDS011;37952;51.938;15.480;2022-12-07T14:32:53;1.20;;;1.10;;
51925;SDS011;37952;51.938;15.480;2022-12-07T14:35:59;2.10;;;1.10;;
51925;SDS011;37952;51.938;15.480;2022-12-07T14:39:02;2.40;;;1.30;;
51925;SDS011;37952;51.938;15.480;2022-12-07T14:45:42;0.90;;;0.90;;
51925;SDS011;37952;51.938;15.480;2022-12-07T14:48:45;1.20;;;0.90;;
51925;SDS011;37952;51.938;15.480;2022-12-07T14:52:14;1.00;;;0.90;;
51925;SDS011;37952;51.938;15.480;2022-12-07T14:55:58;0.90;;;0.90;;
51925;SDS011;37952;51.938;15.480;2022-12-07T14:59:01;1.20;;;1.10;;
51925;SDS011;37952;51.938;15.480;2022-12-07T15:02:04;1.30;;;1.20;;
51925;SDS011;37952;51.938;15.480;2022-12-07T15:05:08;1.60;;;1.50;;
51925;SDS011;37952;51.938;15.480;2022-12-07T15:08:17;1.40;;;1.20;;
51925;SDS011;37952;51.938;15.480;2022-12-07T15:11:20;2.30;;;1.40;;
51925;SDS011;37952;51.938;15.480;2022-12-07T15:14:23;1.10;;;1.00;;
51925;SDS011;37952;51.938;15.480;2022-12-07T15:17:27;2.00;;;1.20;;
51925;SDS011;37952;51.938;15.480;2022-12-07T15:25:14;1.10;;;1.00;;
51925;SDS011;37952;51.938;15.480;2022-12-07T15:28:17;3.20;;;1.60;;
51925;SDS011;37952;51.938;15.480;2022-12-07T15:35:41;1.80;;;1.70;;
51925;SDS011;37952;51.938;15.480;2022-12-07T15:38:45;1.90;;;1.80;;
51925;SDS011;37952;51.938;15.480;2022-12-07T15:42:08;2.20;;;1.80;;
51925;SDS011;37952;51.938;15.480;2022-12-07T15:45:11;2.00;;;1.80;;
51925;SDS011;37952;51.938;15.480;2022-12-07T15:48:15;1.80;;;1.70;;
51925;SDS011;37952;51.938;15.480;2022-12-07T15:51:34;1.70;;;1.60;;
51925;SDS011;37952;51.938;15.480;2022-12-07T15:54:37;2.40;;;2.00;;
51925;SDS011;37952;51.938;15.480;2022-12-07T15:57:40;2.90;;;1.80;;
51925;SDS011;37952;51.938;15.480;2022-12-07T16:00:43;2.50;;;1.90;;
51925;SDS011;37952;51.938;15.480;2022-12-07T16:03:46;3.20;;;1.80;;
51925;SDS011;37952;51.938;15.480;2022-12-07T16:06:51;3.50;;;2.00;;
51925;SDS011;37952;51.938;15.480;2022-12-07T16:09:54;2.60;;;2.20;;
51925;SDS011;37952;51.938;15.480;2022-12-07T16:17:49;2.40;;;1.80;;
51925;SDS011;37952;51.938;15.480;2022-12-07T16:24:27;2.20;;;2.00;;
51925;SDS011;37952;51.938;15.480;2022-12-07T16:27:30;2.80;;;1.90;;
51925;SDS011;37952;51.938;15.480;2022-12-07T16:30:33;2.50;;;2.40;;
51925;SDS011;37952;51.938;15.480;2022-12-07T16:33:37;2.50;;;2.30;;
51925;SDS011;37952;51.938;15.480;2022-12-07T16:41:19;3.80;;;1.90;;
51925;SDS011;37952;51.938;15.480;2022-12-07T16:49:04;2.30;;;2.10;;
51925;SDS011;37952;51.938;15.480;2022-12-07T16:52:07;2.80;;;2.60;;
51925;SDS011;37952;51.938;15.480;2022-12-07T16:55:22;3.30;;;2.40;;
51925;SDS011;37952;51.938;15.480;2022-12-07T17:02:49;2.80;;;2.60;;
51925;SDS011;37952;51.938;15.480;2022-12-07T17:05:52;4.10;;;3.00;;
51925;SDS011;37952;51.938;15.480;2022-12-07T17:08:56;2.40;;;2.30;;
51925;SDS011;37952;51.938;15.480;2022-12-07T17:11:59;2.50;;;2.30;;
51925;SDS011;37952;51.938;15.480;2022-12-07T17:15:03;4.20;;;2.80;;
51925;SDS011;37952;51.938;15.480;2022-12-07T17:22:20;3.40;;;2.80;;
51925;SDS011;37952;51.938;15.480;2022-12-07T17:29:56;3.40;;;3.20;;
51925;SDS011;37952;51.938;15.480;2022-12-07T17:33:00;3.80;;;3.10;;
51925;SDS011;37952;51.938;15.480;2022-12-07T17:45:24;4.80;;;3.60;;
51925;SDS011;37952;51.938;15.480;2022-12-07T17:48:27;3.70;;;3.10;;
51925;SDS011;37952;51.938;15.480;2022-12-07T17:51:30;3.00;;;2.80;;
51925;SDS011;37952;51.938;15.480;2022-12-07T17:54:52;4.50;;;3.10;;
51925;SDS011;37952;51.938;15.480;2022-12-07T17:57:55;3.20;;;2.40;;
51925;SDS011;37952;51.938;15.480;2022-12-07T18:00:58;4.30;;;2.90;;
51925;SDS011;37952;51.938;15.480;2022-12-07T18:04:02;3.70;;;3.40;;
51925;SDS011;37952;51.938;15.480;2022-12-07T18:07:10;3.90;;;3.20;;
51925;SDS011;37952;51.938;15.480;2022-12-07T18:10:14;3.90;;;3.20;;
51925;SDS011;37952;51.938;15.480;2022-12-07T18:16:55;2.80;;;2.60;;
51925;SDS011;37952;51.938;15.480;2022-12-07T18:19:59;7.00;;;2.80;;
51925;SDS011;37952;51.938;15.480;2022-12-07T18:23:05;3.30;;;2.90;;
51925;SDS011;37952;51.938;15.480;2022-12-07T18:26:09;3.20;;;3.00;;
51925;SDS011;37952;51.938;15.480;2022-12-07T18:29:19;4.50;;;3.50;;
51925;SDS011;37952;51.938;15.480;2022-12-07T18:32:34;5.90;;;3.30;;
51925;SDS011;37952;51.938;15.480;2022-12-07T18:37:07;2.80;;;2.70;;
51925;SDS011;37952;51.938;15.480;2022-12-07T18:40:39;2.40;;;2.20;;
51925;SDS011;37952;51.938;15.480;2022-12-07T18:44:47;2.90;;;2.60;;
51925;SDS011;37952;51.938;15.480;2022-12-07T18:48:21;3.10;;;2.80;;
51925;SDS011;37952;51.938;15.480;2022-12-07T18:51:38;3.00;;;2.80;;
51925;SDS011;37952;51.938;15.480;2022-12-07T18:54:54;2.90;;;2.70;;
51925;SDS011;37952;51.938;15.480;2022-12-07T18:58:12;2.80;;;2.60;;
51925;SDS011;37952;51.938;15.480;2022-12-07T19:01:23;3.00;;;2.60;;
51925;SDS011;37952;51.938;15.480;2022-12-07T19:04:47;3.60;;;2.70;;
51925;SDS011;37952;51.938;15.480;2022-12-07T19:11:31;2.40;;;2.20;;
51925;SDS011;37952;51.938;15.480;2022-12-07T19:14:58;9.30;;;4.50;;
51925;SDS011;37952;51.938;15.480;2022-12-07T19:18:07;2.60;;;2.40;;
51925;SDS011;37952;51.938;15.480;2022-12-07T19:21:11;3.10;;;2.40;;
51925;SDS011;37952;51.938;15.480;2022-12-07T19:24:50;2.90;;;2.70;;
51925;SDS011;37952;51.938;15.480;2022-12-07T19:28:17;3.10;;;2.70;;
51925;SDS011;37952;51.938;15.480;2022-12-07T19:31:30;2.50;;;2.40;;
51925;SDS011;37952;51.938;15.480;2022-12-07T19:34:52;4.10;;;2.70;;
51925;SDS011;37952;51.938;15.480;2022-12-07T19:38:01;2.90;;;2.60;;
51925;SDS011;37952;51.938;15.480;2022-12-07T19:41:05;3.70;;;2.30;;
51925;SDS011;37952;51.938;15.480;2022-12-07T19:45:20;7.00;;;3.70;;
51925;SDS011;37952;51.938;15.480;2022-12-07T19:49:05;3.40;;;3.10;;
51925;SDS011;37952;51.938;15.480;2022-12-07T19:53:20;2.40;;;2.30;;
51925;SDS011;37952;51.938;15.480;2022-12-07T19:56:45;7.20;;;2.30;;
51925;SDS011;37952;51.938;15.480;2022-12-07T20:01:27;2.60;;;2.40;;
51925;SDS011;37952;51.938;15.480;2022-12-07T20:09:06;3.00;;;2.60;;
51925;SDS011;37952;51.938;15.480;2022-12-07T20:12:12;2.60;;;2.40;;
51925;SDS011;37952;51.938;15.480;2022-12-07T20:15:39;3.00;;;1.90;;
51925;SDS011;37952;51.938;15.480;2022-12-07T20:18:47;2.70;;;2.10;;
51925;SDS011;37952;51.938;15.480;2022-12-07T20:22:01;4.00;;;2.30;;
51925;SDS011;37952;51.938;15.480;2022-12-07T20:25:07;3.30;;;2.00;;
51925;SDS011;37952;51.938;15.480;2022-12-07T20:28:10;3.50;;;2.90;;
51925;SDS011;37952;51.938;15.480;2022-12-07T20:31:15;5.00;;;3.00;;
51925;SDS011;37952;51.938;15.480;2022-12-07T20:34:24;2.70;;;2.50;;
51925;SDS011;37952;51.938;15.480;2022-12-07T20:38:01;3.70;;;2.00;;
51925;SDS011;37952;51.938;15.480;2022-12-07T20:41:46;2.90;;;2.60;;
51925;SDS011;37952;51.938;15.480;2022-12-07T20:45:46;2.90;;;2.70;;
51925;SDS011;37952;51.938;15.480;2022-12-07T20:48:56;5.00;;;2.80;;
51925;SDS011;37952;51.938;15.480;2022-12-07T20:52:02;3.60;;;2.40;;
51925;SDS011;37952;51.938;15.480;2022-12-07T20:55:06;4.40;;;3.00;;
51925;SDS011;37952;51.938;15.480;2022-12-07T20:58:10;3.10;;;2.50;;
51925;SDS011;37952;51.938;15.480;2022-12-07T21:01:13;2.40;;;2.30;;
51925;SDS011;37952;51.938;15.480;2022-12-07T21:04:17;3.20;;;2.70;;
51925;SDS011;37952;51.938;15.480;2022-12-07T21:07:22;4.60;;;2.80;;
51925;SDS011;37952;51.938;15.480;2022-12-07T21:10:28;4.70;;;2.80;;
51925;SDS011;37952;51.938;15.480;2022-12-07T21:13:33;3.50;;;2.80;;
51925;SDS011;37952;51.938;15.480;2022-12-07T21:16:36;5.50;;;3.10;;
51925;SDS011;37952;51.938;15.480;2022-12-07T21:19:39;3.90;;;2.70;;
51925;SDS011;37952;51.938;15.480;2022-12-07T21:22:51;5.10;;;2.50;;
51925;SDS011;37952;51.938;15.480;2022-12-07T21:25:57;3.90;;;3.20;;
51925;SDS011;37952;51.938;15.480;2022-12-07T21:29:03;3.10;;;2.90;;
51925;SDS011;37952;51.938;15.480;2022-12-07T21:32:56;2.90;;;2.60;;
51925;SDS011;37952;51.938;15.480;2022-12-07T21:36:59;3.60;;;3.30;;
51925;SDS011;37952;51.938;15.480;2022-12-07T21:44:26;4.10;;;3.30;;
51925;SDS011;37952;51.938;15.480;2022-12-07T21:47:31;2.90;;;2.70;;
51925;SDS011;37952;51.938;15.480;2022-12-07T21:50:34;4.50;;;3.60;;
51925;SDS011;37952;51.938;15.480;2022-12-07T21:53:43;3.70;;;3.40;;
51925;SDS011;37952;51.938;15.480;2022-12-07T21:56:46;8.20;;;3.50;;
51925;SDS011;37952;51.938;15.480;2022-12-07T21:59:51;4.00;;;3.30;;
51925;SDS011;37952;51.938;15.480;2022-12-07T22:02:54;5.60;;;3.70;;
51925;SDS011;37952;51.938;15.480;2022-12-07T22:10:00;4.90;;;3.10;;
51925;SDS011;37952;51.938;15.480;2022-12-07T22:13:07;4.00;;;3.70;;
51925;SDS011;37952;51.938;15.480;2022-12-07T22:16:11;3.40;;;3.10;;
51925;SDS011;37952;51.938;15.480;2022-12-07T22:19:14;4.10;;;3.80;;
51925;SDS011;37952;51.938;15.480;2022-12-07T22:22:19;3.90;;;3.60;;
51925;SDS011;37952;51.938;15.480;2022-12-07T22:25:23;3.40;;;3.20;;
51925;SDS011;37952;51.938;15.480;2022-12-07T22:28:26;4.70;;;3.90;;
51925;SDS011;37952;51.938;15.480;2022-12-07T22:31:29;4.20;;;3.80;;
51925;SDS011;37952;51.938;15.480;2022-12-07T22:34:32;3.90;;;3.50;;
51925;SDS011;37952;51.938;15.480;2022-12-07T22:37:45;4.30;;;3.90;;
51925;SDS011;37952;51.938;15.480;2022-12-07T22:40:49;3.70;;;3.40;;
51925;SDS011;37952;51.938;15.480;2022-12-07T22:47:57;6.80;;;3.30;;
51925;SDS011;37952;51.938;15.480;2022-12-07T22:51:00;3.80;;;3.20;;
51925;SDS011;37952;51.938;15.480;2022-12-07T22:54:10;3.60;;;3.30;;
51925;SDS011;37952;51.938;15.480;2022-12-07T22:57:19;3.90;;;3.60;;
51925;SDS011;37952;51.938;15.480;2022-12-07T23:00:22;6.10;;;3.60;;
51925;SDS011;37952;51.938;15.480;2022-12-07T23:03:25;4.80;;;3.50;;
51925;SDS011;37952;51.938;15.480;2022-12-07T23:06:30;3.70;;;3.40;;
51925;SDS011;37952;51.938;15.480;2022-12-07T23:09:35;4.20;;;3.80;;
51925;SDS011;37952;51.938;15.480;2022-12-07T23:12:39;3.60;;;3.40;;
51925;SDS011;37952;51.938;15.480;2022-12-07T23:16:11;3.90;;;3.50;;
51925;SDS011;37952;51.938;15.480;2022-12-07T23:19:16;3.90;;;3.60;;
51925;SDS011;37952;51.938;15.480;2022-12-07T23:22:19;4.20;;;3.80;;
51925;SDS011;37952;51.938;15.480;2022-12-07T23:25:22;5.20;;;4.20;;
51925;SDS011;37952;51.938;15.480;2022-12-07T23:28:25;3.40;;;3.20;;